Pagrindinis puslapis
METAR-TAF:

METAR-TAF

Oro uostai :

Vadsė, Norvegija

platuma: 70-04N, ilguma: 029-51E, Aukštis: 3 m

Dabartinis oras

Ataskaita buvo paskelbta 44 minutes, ne 11:50 UTC
Vėjas 12 kt iš Šiaurės/Šiaurės Vakarų
Temperatūra 16°C
Drėgmė 68%
Slėgis 1013 hPa
Matomumas 10 km arba daugiau
Išsisklaidę debesys ne aukštis 2500 ft

METAR: ENVD 221150Z 33012KT 9999 SCT025 16/10 Q1013

Laikas: 14:34 (12:34 UTC)

Prognozė

Ataskaita buvo paskelbta 4 valandos ir 34 minutes, ne 08:00 UTC
Prognozė galioja nuo 22 metu 09 UTC su 22 metu 13 UTC
Vėjas 8 kt nuo kintamojo kryptimis
Matomumas 10 km arba daugiau
Mažai debesys ne aukštis 500 ft
Su prošvaistėmis ne aukštis 2000 ft
Laikinai
nuo 22 metu 09 UTC su 22 metu 13 UTC
Vėjas 15 kt iš Vakarų/Šiaurės Vakarų

TAF: ENVD 220800Z 2209/2213 VRB08KT 9999 FEW005 BKN020 TEMPO 2209/2213 30015KT

Orai ataskaitas ir orų prognozės (METAR, TAF).

turimą stotys yra geltonos ir raudonos taškus žemėlapyje.

Perkelti pele per norėdami pamatyti stoties vardą.

Tada spustelėkite, norėdami matyti oro stebėjimo ir prognozės.

Norėdami pakeisti žemėlapį: spustelėkite ant žalios mygtukų su juodo kryžiaus žemyn,; žalią mygtuką su brūkšneliu, jei norite nutolinti; arba žalių rodyklių gretimoms žemėlapius.


METAR-TAF: